Airfield :
LOGIN :

Register | Disclaimer

   EN    FR    IT 

 










Legend :    VFR   Marginal VFR   IFR   Intensive IFR   Very Intensive IFR
Visi :
Ceiling :
>= 8 km
>= 3000ft
5 to 8 km
1000 to 3000 ft
1500m to 5 km
500 to 1000 ft
800 to 1500m
200 to 500 ft
< 800m
< 200 ft
Symbols :   Thunderstorms  Fog  Heavy snow  Heavy precipitations  Wind > 20 kt
SIGMETs :     Misc.  Thunderstorms  Icing  Turbulence  Mountain Waves  Volcanic Ashes







- Airport Elevation : 2425 ft


ETHA - Altenstadt Army

CURRENT METAR :
  • 180420Z 25003KT 2000 BCFG BR SCT280 05/04 Q1019 YLO YLO TEMPO RED

EXPIRED METARs :
  • 180350Z 23003KT 2000 BCFG BR SCT280 04/04 Q1019 YLO
  • 180320Z 24003KT 3000 BR SCT280 05/05 Q1019 YLO
  • 180220Z AUTO 23003KT //// // ////// 05/05 Q1019 ///

TAF TAF ETHA
Valid from the 18 at 05:00 until the 18 at 14:00 UTC


180420Z 1805/1814 23003KT 2000 BR SCTCT280
TEMPO 1805/1807 VRB01KT 0500 FG SCT001
BECMG 1808/1809 07007KT 9999 NSW FEW040 BKN240
No reported NOTAMs for that airfield.



MET'MAP, your aeronautical weather chart ! - Copyright ORBIFLY December 2007 - Disclaimer

ORBIFLY MET'MAP TEAM :

Programming & Development : Alexandra Zaïnal
Concept & Development : Baudouin d'Aumeries
Co-Development & Prog : Marc-Olivier Méhu
Technical & hardware support : Manuel Goepfert

Contact : metmap@orbifly.com




SOURCES & CREDITS :

   NOAA